Terminal Aerodrome Forecast
Issued by NWS Lake Charles, LA

Home | Current Version | Previous Version | Text Only | Print | Product List | Glossary On
Versions: 1 2 3 4 5 6 7 8 9 10 11 12 13 14
000
FTUS44 KLCH 192300
TAFBPT
TAF
KBPT 192320Z 2000/2024 03012KT 6SM -RA OVC008
      TEMPO 2002/2006 3SM BR OVC004
     FM200600 02013KT 3SM BR OVC004
     FM201500 03012KT P6SM OVC025=

USA.gov is the U.S. government's official web portal to all federal, state and local government web resources and services.